Time,TemperatureF,DewpointF,PressureIn,WindDirection,WindDirectionDegrees,WindSpeedMPH,WindSpeedGustMPH,Humidity,HourlyPrecipIn,Conditions,Clouds,dailyrainin,SolarRadiationWatts/m^2,SoftwareType,DateUTC
2013-03-30 00:02:00,44.0,26.0,-100.00,NNW,333,4.0,8.0,49,0.00,,,0.00,1.000000,,2013-03-30 04:02:00,
2013-03-30 00:13:00,44.0,26.0,-100.00,NNW,333,4.0,8.0,49,0.00,,,0.00,1.000000,,2013-03-30 04:13:00,
2013-03-30 00:23:00,44.0,26.0,-100.00,NNW,333,4.0,8.0,49,0.00,,,0.00,1.000000,,2013-03-30 04:23:00,
2013-03-30 00:53:00,44.0,26.0,-100.00,NW,322,4.0,8.0,49,0.00,,,0.00,1.000000,,2013-03-30 04:53:00,
2013-03-30 01:03:00,44.0,26.0,-100.00,NW,322,4.0,8.0,49,0.00,,,0.00,1.000000,,2013-03-30 05:03:00,
2013-03-30 01:12:00,44.0,26.0,-100.00,NW,322,4.0,8.0,49,0.00,,,0.00,1.000000,,2013-03-30 05:12:00,
2013-03-30 01:22:00,44.0,26.0,-100.00,NW,322,4.0,8.0,49,0.00,,,0.00,1.000000,,2013-03-30 05:22:00,
2013-03-30 01:52:00,44.0,27.0,-100.00,NNW,332,3.0,6.0,51,0.00,,,0.00,1.000000,,2013-03-30 05:52:00,
2013-03-30 02:02:00,44.0,27.0,-100.00,NNW,332,3.0,6.0,51,0.00,,,0.00,1.000000,,2013-03-30 06:02:00,
2013-03-30 02:12:00,44.0,27.0,-100.00,NNW,332,3.0,6.0,51,0.00,,,0.00,1.000000,,2013-03-30 06:12:00,
2013-03-30 02:23:00,44.0,27.0,-100.00,NNW,332,3.0,6.0,51,0.00,,,0.00,1.000000,,2013-03-30 06:23:00,
2013-03-30 02:52:00,44.0,28.0,-100.00,NW,320,4.0,8.0,53,0.00,,,0.00,0.000000,,2013-03-30 06:52:00,
2013-03-30 03:02:00,44.0,28.0,-100.00,NW,320,4.0,8.0,53,0.00,,,0.00,0.000000,,2013-03-30 07:02:00,
2013-03-30 03:12:00,44.0,28.0,-100.00,NW,320,4.0,8.0,53,0.00,,,0.00,0.000000,,2013-03-30 07:12:00,
2013-03-30 03:22:00,44.0,28.0,-100.00,NW,320,4.0,8.0,53,0.00,,,0.00,0.000000,,2013-03-30 07:22:00,
2013-03-30 03:52:00,43.0,28.0,-100.00,NW,319,4.0,8.0,55,0.00,,,0.00,1.000000,,2013-03-30 07:52:00,
2013-03-30 04:02:00,43.0,28.0,-100.00,NW,319,4.0,8.0,55,0.00,,,0.00,1.000000,,2013-03-30 08:02:00,
2013-03-30 04:12:00,43.0,28.0,-100.00,NW,319,4.0,8.0,55,0.00,,,0.00,1.000000,,2013-03-30 08:12:00,
2013-03-30 04:22:00,43.0,28.0,-100.00,NW,319,4.0,8.0,55,0.00,,,0.00,1.000000,,2013-03-30 08:22:00,
2013-03-30 04:53:00,43.0,29.0,-100.00,NW,322,5.0,11.0,57,0.00,,,0.00,1.000000,,2013-03-30 08:53:00,
2013-03-30 05:03:00,43.0,29.0,-100.00,NW,322,5.0,11.0,57,0.00,,,0.00,1.000000,,2013-03-30 09:03:00,
2013-03-30 05:12:00,43.0,29.0,-100.00,NW,322,5.0,11.0,57,0.00,,,0.00,1.000000,,2013-03-30 09:12:00,
2013-03-30 05:22:00,43.0,29.0,-100.00,NW,322,5.0,11.0,57,0.00,,,0.00,1.000000,,2013-03-30 09:22:00,
2013-03-30 05:54:00,42.0,28.0,-100.00,NW,325,5.0,9.0,58,0.00,,,0.00,1.000000,,2013-03-30 09:54:00,
2013-03-30 06:03:00,42.0,28.0,-100.00,NW,325,5.0,9.0,58,0.00,,,0.00,1.000000,,2013-03-30 10:03:00,
2013-03-30 06:13:00,42.0,28.0,-100.00,NW,325,5.0,9.0,58,0.00,,,0.00,1.000000,,2013-03-30 10:13:00,
2013-03-30 06:23:00,42.0,28.0,-100.00,NW,325,5.0,9.0,58,0.00,,,0.00,1.000000,,2013-03-30 10:23:00,
2013-03-30 06:53:00,42.0,28.0,-100.00,NNW,334,5.0,11.0,58,0.00,,,0.00,1.000000,,2013-03-30 10:53:00,
2013-03-30 07:04:00,42.0,28.0,-100.00,NNW,334,5.0,11.0,58,0.00,,,0.00,1.000000,,2013-03-30 11:04:00,
2013-03-30 07:12:00,42.0,28.0,-100.00,NNW,334,5.0,11.0,58,0.00,,,0.00,1.000000,,2013-03-30 11:12:00,
2013-03-30 07:22:00,42.0,28.0,-100.00,NNW,334,5.0,11.0,58,0.00,,,0.00,1.000000,,2013-03-30 11:22:00,
2013-03-30 07:53:00,41.0,29.0,-100.00,NW,326,4.0,7.0,61,0.00,,,0.00,18.000000,,2013-03-30 11:53:00,
2013-03-30 08:02:00,41.0,29.0,-100.00,NW,326,4.0,7.0,61,0.00,,,0.00,18.000000,,2013-03-30 12:02:00,
2013-03-30 08:13:00,41.0,29.0,-100.00,NW,326,4.0,7.0,61,0.00,,,0.00,18.000000,,2013-03-30 12:13:00,
2013-03-30 08:23:00,41.0,29.0,-100.00,NW,326,4.0,7.0,61,0.00,,,0.00,18.000000,,2013-03-30 12:23:00,
2013-03-30 08:53:00,45.0,28.0,-100.00,NW,319,7.0,13.0,52,0.00,,,0.00,167.000000,,2013-03-30 12:53:00,
2013-03-30 09:02:00,45.0,28.0,-100.00,NW,319,7.0,13.0,52,0.00,,,0.00,167.000000,,2013-03-30 13:02:00,
2013-03-30 09:12:00,45.0,28.0,-100.00,NW,319,7.0,13.0,52,0.00,,,0.00,167.000000,,2013-03-30 13:12:00,
2013-03-30 09:23:00,45.0,28.0,-100.00,NW,319,7.0,13.0,52,0.00,,,0.00,167.000000,,2013-03-30 13:23:00,
2013-03-30 09:53:00,49.0,27.0,-100.00,NNW,331,7.0,14.0,42,0.00,,,0.00,372.000000,,2013-03-30 13:53:00,
2013-03-30 10:03:00,49.0,27.0,-100.00,NNW,331,7.0,14.0,42,0.00,,,0.00,372.000000,,2013-03-30 14:03:00,
2013-03-30 10:12:00,49.0,27.0,-100.00,NNW,331,7.0,14.0,42,0.00,,,0.00,372.000000,,2013-03-30 14:12:00,
2013-03-30 10:23:00,49.0,27.0,-100.00,NNW,331,7.0,14.0,42,0.00,,,0.00,372.000000,,2013-03-30 14:23:00,
2013-03-30 10:53:00,52.0,25.0,-100.00,NNW,336,8.0,17.0,34,0.00,,,0.00,555.000000,,2013-03-30 14:53:00,
2013-03-30 11:03:00,52.0,25.0,-100.00,NNW,336,8.0,17.0,34,0.00,,,0.00,555.000000,,2013-03-30 15:03:00,
2013-03-30 11:12:00,52.0,25.0,-100.00,NNW,336,8.0,17.0,34,0.00,,,0.00,555.000000,,2013-03-30 15:12:00,
2013-03-30 11:23:00,52.0,25.0,-100.00,NNW,336,8.0,17.0,34,0.00,,,0.00,555.000000,,2013-03-30 15:23:00,
2013-03-30 11:53:00,55.0,22.0,-100.00,NW,315,7.0,14.0,27,0.00,,,0.00,671.000000,,2013-03-30 15:53:00,
2013-03-30 12:04:00,55.0,22.0,-100.00,NW,315,7.0,14.0,27,0.00,,,0.00,671.000000,,2013-03-30 16:04:00,
2013-03-30 12:13:00,55.0,22.0,-100.00,NW,315,7.0,14.0,27,0.00,,,0.00,671.000000,,2013-03-30 16:13:00,
2013-03-30 12:23:00,55.0,22.0,-100.00,NW,315,7.0,14.0,27,0.00,,,0.00,671.000000,,2013-03-30 16:23:00,
2013-03-30 12:53:00,59.0,21.0,-100.00,West,281,6.0,18.0,23,0.00,,,0.00,696.000000,,2013-03-30 16:53:00,
2013-03-30 13:02:00,59.0,21.0,-100.00,West,281,6.0,18.0,23,0.00,,,0.00,696.000000,,2013-03-30 17:02:00,
2013-03-30 13:13:00,59.0,21.0,-100.00,West,281,6.0,18.0,23,0.00,,,0.00,696.000000,,2013-03-30 17:13:00,
2013-03-30 13:23:00,59.0,21.0,-100.00,West,281,6.0,18.0,23,0.00,,,0.00,696.000000,,2013-03-30 17:23:00,
2013-03-30 13:53:00,53.0,33.0,-100.00,SW,214,11.0,20.0,46,0.00,,,0.00,788.000000,,2013-03-30 17:53:00,
2013-03-30 14:03:00,53.0,33.0,-100.00,SW,214,11.0,20.0,46,0.00,,,0.00,788.000000,,2013-03-30 18:03:00,
2013-03-30 14:13:00,53.0,33.0,-100.00,SW,214,11.0,20.0,46,0.00,,,0.00,788.000000,,2013-03-30 18:13:00,
2013-03-30 14:22:00,53.0,33.0,-100.00,SW,214,11.0,20.0,46,0.00,,,0.00,788.000000,,2013-03-30 18:22:00,
2013-03-30 14:53:00,51.0,30.0,-100.00,SW,229,12.0,24.0,45,0.00,,,0.00,823.000000,,2013-03-30 18:53:00,
2013-03-30 15:03:00,51.0,30.0,-100.00,SW,229,12.0,24.0,45,0.00,,,0.00,823.000000,,2013-03-30 19:03:00,
2013-03-30 15:13:00,51.0,30.0,-100.00,SW,229,12.0,24.0,45,0.00,,,0.00,823.000000,,2013-03-30 19:13:00,
2013-03-30 15:22:00,51.0,30.0,-100.00,SW,229,12.0,24.0,45,0.00,,,0.00,823.000000,,2013-03-30 19:22:00,
2013-03-30 15:53:00,54.0,28.0,-100.00,WSW,238,10.0,22.0,37,0.00,,,0.00,718.000000,,2013-03-30 19:53:00,
2013-03-30 16:02:00,54.0,28.0,-100.00,WSW,238,10.0,22.0,37,0.00,,,0.00,718.000000,,2013-03-30 20:02:00,
2013-03-30 16:12:00,54.0,28.0,-100.00,WSW,238,10.0,22.0,37,0.00,,,0.00,718.000000,,2013-03-30 20:12:00,
2013-03-30 16:22:00,54.0,28.0,-100.00,WSW,238,10.0,22.0,37,0.00,,,0.00,718.000000,,2013-03-30 20:22:00,
2013-03-30 16:53:00,55.0,26.0,-100.00,SW,235,12.0,23.0,32,0.00,,,0.00,589.000000,,2013-03-30 20:53:00,
2013-03-30 17:03:00,55.0,26.0,-100.00,SW,235,12.0,23.0,32,0.00,,,0.00,589.000000,,2013-03-30 21:03:00,
2013-03-30 17:13:00,55.0,26.0,-100.00,SW,235,12.0,23.0,32,0.00,,,0.00,589.000000,,2013-03-30 21:13:00,
2013-03-30 17:23:00,55.0,26.0,-100.00,SW,235,12.0,23.0,32,0.00,,,0.00,589.000000,,2013-03-30 21:23:00,
2013-03-30 17:53:00,54.0,24.0,-100.00,WSW,239,11.0,21.0,31,0.00,,,0.00,426.000000,,2013-03-30 21:53:00,
2013-03-30 18:03:00,54.0,24.0,-100.00,WSW,239,11.0,21.0,31,0.00,,,0.00,426.000000,,2013-03-30 22:03:00,
2013-03-30 18:13:00,54.0,24.0,-100.00,WSW,239,11.0,21.0,31,0.00,,,0.00,426.000000,,2013-03-30 22:13:00,
2013-03-30 18:23:00,54.0,24.0,-100.00,WSW,239,11.0,21.0,31,0.00,,,0.00,426.000000,,2013-03-30 22:23:00,
2013-03-30 18:54:00,50.0,27.0,-100.00,SW,236,8.0,21.0,40,0.00,,,0.00,220.000000,,2013-03-30 22:54:00,
2013-03-30 19:03:00,50.0,27.0,-100.00,SW,236,8.0,21.0,40,0.00,,,0.00,220.000000,,2013-03-30 23:03:00,
2013-03-30 19:13:00,50.0,27.0,-100.00,SW,236,8.0,21.0,40,0.00,,,0.00,220.000000,,2013-03-30 23:13:00,
2013-03-30 19:22:00,50.0,27.0,-100.00,SW,236,8.0,21.0,40,0.00,,,0.00,220.000000,,2013-03-30 23:22:00,
2013-03-30 19:53:00,44.0,31.0,-100.00,SW,227,7.0,14.0,59,0.00,,,0.00,29.000000,,2013-03-30 23:53:00,
2013-03-30 20:03:00,44.0,31.0,-100.00,SW,227,7.0,14.0,59,0.00,,,0.00,29.000000,,2013-03-31 00:03:00,
2013-03-30 20:12:00,44.0,31.0,-100.00,SW,227,7.0,14.0,59,0.00,,,0.00,29.000000,,2013-03-31 00:12:00,
2013-03-30 20:22:00,44.0,31.0,-100.00,SW,227,7.0,14.0,59,0.00,,,0.00,29.000000,,2013-03-31 00:22:00,
2013-03-30 20:53:00,39.0,30.0,-100.00,NW,312,0.0,8.0,71,0.00,,,0.00,0.000000,,2013-03-31 00:53:00,
2013-03-30 21:02:00,39.0,30.0,-100.00,NW,312,0.0,8.0,71,0.00,,,0.00,0.000000,,2013-03-31 01:02:00,
2013-03-30 21:12:00,39.0,30.0,-100.00,NW,312,0.0,8.0,71,0.00,,,0.00,0.000000,,2013-03-31 01:12:00,
2013-03-30 21:22:00,39.0,30.0,-100.00,NW,312,0.0,8.0,71,0.00,,,0.00,0.000000,,2013-03-31 01:22:00,
2013-03-30 21:53:00,39.0,31.0,-100.00,WSW,239,6.0,12.0,73,0.00,,,0.00,1.000000,,2013-03-31 01:53:00,
2013-03-30 22:02:00,39.0,31.0,-100.00,WSW,239,6.0,12.0,73,0.00,,,0.00,1.000000,,2013-03-31 02:02:00,
2013-03-30 22:13:00,39.0,31.0,-100.00,WSW,239,6.0,12.0,73,0.00,,,0.00,1.000000,,2013-03-31 02:13:00,
2013-03-30 22:22:00,39.0,31.0,-100.00,WSW,239,6.0,12.0,73,0.00,,,0.00,1.000000,,2013-03-31 02:22:00,
2013-03-30 22:53:00,40.0,29.0,-100.00,West,276,3.0,11.0,65,0.00,,,0.00,0.000000,,2013-03-31 02:53:00,
2013-03-30 23:02:00,40.0,29.0,-100.00,West,276,3.0,11.0,65,0.00,,,0.00,0.000000,,2013-03-31 03:02:00,
2013-03-30 23:13:00,40.0,29.0,-100.00,West,276,3.0,11.0,65,0.00,,,0.00,0.000000,,2013-03-31 03:13:00,
2013-03-30 23:22:00,40.0,29.0,-100.00,West,276,3.0,11.0,65,0.00,,,0.00,0.000000,,2013-03-31 03:22:00,
2013-03-30 23:54:00,39.0,29.0,-100.00,West,270,3.0,6.0,66,0.00,,,0.00,0.000000,,2013-03-31 03:54:00,